sensor_id;sensor_type;location;lat;lon;timestamp;temperature;humidity
67358;HTU21D;54240;51.096;5.878;2024-03-29T00:01:22;-44.12;-6.00
67358;HTU21D;54240;51.096;5.878;2024-03-29T00:03:48;-41.37;-6.00
67358;HTU21D;54240;51.096;5.878;2024-03-29T00:06:13;-45.49;-6.00
67358;HTU21D;54240;51.096;5.878;2024-03-29T00:08:39;-44.12;-6.00
67358;HTU21D;54240;51.096;5.878;2024-03-29T00:11:05;-35.88;-6.00
67358;HTU21D;54240;51.096;5.878;2024-03-29T00:13:31;-45.49;-6.00
67358;HTU21D;54240;51.096;5.878;2024-03-29T00:15:57;-42.74;-6.00
67358;HTU21D;54240;51.096;5.878;2024-03-29T00:18:23;-45.49;-6.00
67358;HTU21D;54240;51.096;5.878;2024-03-29T00:20:49;-45.49;-6.00
67358;HTU21D;54240;51.096;5.878;2024-03-29T00:23:15;-42.74;-6.00
67358;HTU21D;54240;51.096;5.878;2024-03-29T00:25:40;-44.12;-6.00
67358;HTU21D;54240;51.096;5.878;2024-03-29T00:28:06;-44.72;-6.00
67358;HTU21D;54240;51.096;5.878;2024-03-29T00:30:32;-44.12;-6.00
67358;HTU21D;54240;51.096;5.878;2024-03-29T00:32:59;-44.12;-6.00
67358;HTU21D;54240;51.096;5.878;2024-03-29T00:35:24;-45.49;-6.00
67358;HTU21D;54240;51.096;5.878;2024-03-29T00:37:50;-44.12;-6.00
67358;HTU21D;54240;51.096;5.878;2024-03-29T00:40:16;-44.12;-6.00
67358;HTU21D;54240;51.096;5.878;2024-03-29T00:42:42;-45.49;-6.00
67358;HTU21D;54240;51.096;5.878;2024-03-29T00:45:08;-45.49;-6.00
67358;HTU21D;54240;51.096;5.878;2024-03-29T00:47:34;-45.49;-6.00
67358;HTU21D;54240;51.096;5.878;2024-03-29T00:50:00;-45.49;-6.00
67358;HTU21D;54240;51.096;5.878;2024-03-29T00:52:26;-44.12;-6.00
67358;HTU21D;54240;51.096;5.878;2024-03-29T00:54:52;-44.12;-6.00
67358;HTU21D;54240;51.096;5.878;2024-03-29T00:57:18;-35.88;-6.00
67358;HTU21D;54240;51.096;5.878;2024-03-29T00:59:44;-35.88;-6.00
67358;HTU21D;54240;51.096;5.878;2024-03-29T01:02:10;-41.37;-6.00
67358;HTU21D;54240;51.096;5.878;2024-03-29T01:04:36;-41.37;-6.00
67358;HTU21D;54240;51.096;5.878;2024-03-29T01:07:03;-41.37;-6.00
67358;HTU21D;54240;51.096;5.878;2024-03-29T01:09:29;-41.37;-6.00
67358;HTU21D;54240;51.096;5.878;2024-03-29T01:11:55;-41.37;-6.00
67358;HTU21D;54240;51.096;5.878;2024-03-29T01:14:21;-41.37;-6.00
67358;HTU21D;54240;51.096;5.878;2024-03-29T01:16:47;-41.37;-6.00
67358;HTU21D;54240;51.096;5.878;2024-03-29T01:19:12;-41.37;-6.00
67358;HTU21D;54240;51.096;5.878;2024-03-29T01:21:38;-41.37;-6.00
67358;HTU21D;54240;51.096;5.878;2024-03-29T01:24:04;-41.37;-6.00
67358;HTU21D;54240;51.096;5.878;2024-03-29T01:26:30;-41.37;-6.00
67358;HTU21D;54240;51.096;5.878;2024-03-29T01:28:56;-41.37;-6.00
67358;HTU21D;54240;51.096;5.878;2024-03-29T01:31:25;-41.37;-6.00
67358;HTU21D;54240;51.096;5.878;2024-03-29T01:33:51;-41.37;-6.00
67358;HTU21D;54240;51.096;5.878;2024-03-29T01:36:17;-41.37;-6.00
67358;HTU21D;54240;51.096;5.878;2024-03-29T01:38:43;-41.37;-6.00
67358;HTU21D;54240;51.096;5.878;2024-03-29T01:41:11;-41.37;-6.00
67358;HTU21D;54240;51.096;5.878;2024-03-29T01:43:38;-41.37;-6.00
67358;HTU21D;54240;51.096;5.878;2024-03-29T01:46:05;-41.37;-6.00
67358;HTU21D;54240;51.096;5.878;2024-03-29T01:48:34;-41.37;-6.00
67358;HTU21D;54240;51.096;5.878;2024-03-29T01:51:01;-41.37;-6.00
67358;HTU21D;54240;51.096;5.878;2024-03-29T01:53:27;-41.37;-6.00
67358;HTU21D;54240;51.096;5.878;2024-03-29T01:55:54;-41.37;-6.00
67358;HTU21D;54240;51.096;5.878;2024-03-29T01:58:20;-41.37;-6.00
67358;HTU21D;54240;51.096;5.878;2024-03-29T02:00:52;-41.37;-6.00
67358;HTU21D;54240;51.096;5.878;2024-03-29T02:03:19;-41.37;-6.00
67358;HTU21D;54240;51.096;5.878;2024-03-29T02:05:46;-41.37;-6.00
67358;HTU21D;54240;51.096;5.878;2024-03-29T02:08:14;-35.88;-6.00
67358;HTU21D;54240;51.096;5.878;2024-03-29T02:10:42;-35.88;-6.00
67358;HTU21D;54240;51.096;5.878;2024-03-29T02:13:08;-35.88;-6.00
67358;HTU21D;54240;51.096;5.878;2024-03-29T02:15:34;-35.88;-6.00
67358;HTU21D;54240;51.096;5.878;2024-03-29T02:18:00;-35.88;-6.00
67358;HTU21D;54240;51.096;5.878;2024-03-29T02:20:26;-35.88;-6.00
67358;HTU21D;54240;51.096;5.878;2024-03-29T02:23:18;-35.88;-6.00
67358;HTU21D;54240;51.096;5.878;2024-03-29T02:25:45;-35.88;-6.00
67358;HTU21D;54240;51.096;5.878;2024-03-29T02:28:13;-30.39;-6.00
67358;HTU21D;54240;51.096;5.878;2024-03-29T02:30:38;-30.39;-6.00
67358;HTU21D;54240;51.096;5.878;2024-03-29T02:33:04;-30.39;-6.00
67358;HTU21D;54240;51.096;5.878;2024-03-29T02:35:30;-30.39;-6.00
67358;HTU21D;54240;51.096;5.878;2024-03-29T02:37:56;-30.39;-6.00
67358;HTU21D;54240;51.096;5.878;2024-03-29T02:40:22;-30.39;-6.00
67358;HTU21D;54240;51.096;5.878;2024-03-29T02:42:49;-30.39;-6.00
67358;HTU21D;54240;51.096;5.878;2024-03-29T02:45:18;-30.39;-6.00
67358;HTU21D;54240;51.096;5.878;2024-03-29T02:47:43;-30.39;-6.00
67358;HTU21D;54240;51.096;5.878;2024-03-29T02:50:12;-35.88;-6.00
67358;HTU21D;54240;51.096;5.878;2024-03-29T02:52:38;-35.88;-6.00
67358;HTU21D;54240;51.096;5.878;2024-03-29T02:55:04;-35.88;-6.00
67358;HTU21D;54240;51.096;5.878;2024-03-29T02:57:30;-35.88;-6.00
67358;HTU21D;54240;51.096;5.878;2024-03-29T02:59:56;-41.37;-6.00
67358;HTU21D;54240;51.096;5.878;2024-03-29T03:02:22;-41.37;-6.00
67358;HTU21D;54240;51.096;5.878;2024-03-29T03:04:48;-41.37;-6.00
67358;HTU21D;54240;51.096;5.878;2024-03-29T03:07:13;-41.37;-6.00
67358;HTU21D;54240;51.096;5.878;2024-03-29T03:09:58;-41.37;-6.00
67358;HTU21D;54240;51.096;5.878;2024-03-29T03:12:43;-35.88;-6.00
67358;HTU21D;54240;51.096;5.878;2024-03-29T03:15:09;-35.88;-6.00
67358;HTU21D;54240;51.096;5.878;2024-03-29T03:17:35;-35.88;-6.00
67358;HTU21D;54240;51.096;5.878;2024-03-29T03:20:01;-35.88;-6.00
67358;HTU21D;54240;51.096;5.878;2024-03-29T03:22:26;-35.88;-6.00
67358;HTU21D;54240;51.096;5.878;2024-03-29T03:24:52;-35.88;-6.00
67358;HTU21D;54240;51.096;5.878;2024-03-29T03:27:18;-35.88;-6.00
67358;HTU21D;54240;51.096;5.878;2024-03-29T03:29:44;-35.88;-6.00
67358;HTU21D;54240;51.096;5.878;2024-03-29T03:32:10;-35.88;-6.00
67358;HTU21D;54240;51.096;5.878;2024-03-29T03:34:36;-35.88;-6.00
67358;HTU21D;54240;51.096;5.878;2024-03-29T03:37:03;-35.88;-6.00
67358;HTU21D;54240;51.096;5.878;2024-03-29T03:39:29;-35.88;-6.00
67358;HTU21D;54240;51.096;5.878;2024-03-29T03:41:54;-35.88;-6.00
67358;HTU21D;54240;51.096;5.878;2024-03-29T03:44:20;-35.88;-6.00
67358;HTU21D;54240;51.096;5.878;2024-03-29T03:46:47;-35.88;-6.00
67358;HTU21D;54240;51.096;5.878;2024-03-29T03:49:13;-35.88;-6.00
67358;HTU21D;54240;51.096;5.878;2024-03-29T03:51:39;-41.37;-6.00
67358;HTU21D;54240;51.096;5.878;2024-03-29T03:54:04;-35.88;-6.00
67358;HTU21D;54240;51.096;5.878;2024-03-29T03:56:30;-35.88;-6.00
67358;HTU21D;54240;51.096;5.878;2024-03-29T03:58:56;-35.88;-6.00
67358;HTU21D;54240;51.096;5.878;2024-03-29T04:01:22;-35.88;-6.00
67358;HTU21D;54240;51.096;5.878;2024-03-29T04:03:48;-35.88;-6.00
67358;HTU21D;54240;51.096;5.878;2024-03-29T04:06:14;-35.88;-6.00
67358;HTU21D;54240;51.096;5.878;2024-03-29T04:08:40;-35.88;-6.00
67358;HTU21D;54240;51.096;5.878;2024-03-29T04:11:06;-35.88;-6.00
67358;HTU21D;54240;51.096;5.878;2024-03-29T04:13:31;-41.37;-6.00
67358;HTU21D;54240;51.096;5.878;2024-03-29T04:16:01;-35.88;-6.00
67358;HTU21D;54240;51.096;5.878;2024-03-29T04:18:27;-35.88;-6.00
67358;HTU21D;54240;51.096;5.878;2024-03-29T04:21:01;-35.88;-6.00
67358;HTU21D;54240;51.096;5.878;2024-03-29T04:23:27;-35.88;-6.00
67358;HTU21D;54240;51.096;5.878;2024-03-29T04:25:54;-35.88;-6.00
67358;HTU21D;54240;51.096;5.878;2024-03-29T04:28:20;-35.88;-6.00
67358;HTU21D;54240;51.096;5.878;2024-03-29T04:30:56;-35.88;-6.00
67358;HTU21D;54240;51.096;5.878;2024-03-29T04:33:22;-35.88;-6.00
67358;HTU21D;54240;51.096;5.878;2024-03-29T04:36:03;-35.88;-6.00
67358;HTU21D;54240;51.096;5.878;2024-03-29T04:38:30;-35.88;-6.00
67358;HTU21D;54240;51.096;5.878;2024-03-29T04:40:58;-35.88;-6.00
67358;HTU21D;54240;51.096;5.878;2024-03-29T04:43:26;-35.88;-6.00
67358;HTU21D;54240;51.096;5.878;2024-03-29T04:46:10;-35.88;-6.00
67358;HTU21D;54240;51.096;5.878;2024-03-29T04:48:37;-35.88;-6.00
67358;HTU21D;54240;51.096;5.878;2024-03-29T04:51:04;-35.88;-6.00
67358;HTU21D;54240;51.096;5.878;2024-03-29T04:53:29;-35.88;-6.00
67358;HTU21D;54240;51.096;5.878;2024-03-29T04:55:56;-35.88;-6.00
67358;HTU21D;54240;51.096;5.878;2024-03-29T04:58:25;-35.88;-6.00
67358;HTU21D;54240;51.096;5.878;2024-03-29T05:00:52;-35.88;-6.00
67358;HTU21D;54240;51.096;5.878;2024-03-29T05:03:19;-35.88;-6.00
67358;HTU21D;54240;51.096;5.878;2024-03-29T05:05:46;-35.88;-6.00
67358;HTU21D;54240;51.096;5.878;2024-03-29T05:08:12;-35.88;-6.00
67358;HTU21D;54240;51.096;5.878;2024-03-29T05:10:39;-35.88;-6.00
67358;HTU21D;54240;51.096;5.878;2024-03-29T05:13:04;-35.88;-6.00
67358;HTU21D;54240;51.096;5.878;2024-03-29T05:15:31;-35.88;-6.00
67358;HTU21D;54240;51.096;5.878;2024-03-29T05:17:58;-35.88;-6.00
67358;HTU21D;54240;51.096;5.878;2024-03-29T05:20:24;-41.37;-6.00
67358;HTU21D;54240;51.096;5.878;2024-03-29T05:22:50;-41.37;-6.00
67358;HTU21D;54240;51.096;5.878;2024-03-29T05:25:16;-35.88;-6.00
67358;HTU21D;54240;51.096;5.878;2024-03-29T05:27:42;-35.88;-6.00
67358;HTU21D;54240;51.096;5.878;2024-03-29T05:30:08;-35.88;-6.00
67358;HTU21D;54240;51.096;5.878;2024-03-29T05:32:36;-35.88;-6.00
67358;HTU21D;54240;51.096;5.878;2024-03-29T05:35:02;-35.88;-6.00
67358;HTU21D;54240;51.096;5.878;2024-03-29T05:37:28;-35.88;-6.00
67358;HTU21D;54240;51.096;5.878;2024-03-29T05:39:54;-35.88;-6.00
67358;HTU21D;54240;51.096;5.878;2024-03-29T05:42:31;-35.88;-6.00
67358;HTU21D;54240;51.096;5.878;2024-03-29T05:44:57;-35.88;-6.00
67358;HTU21D;54240;51.096;5.878;2024-03-29T05:47:23;-35.88;-6.00
67358;HTU21D;54240;51.096;5.878;2024-03-29T05:49:49;-35.88;-6.00
67358;HTU21D;54240;51.096;5.878;2024-03-29T05:52:16;-35.88;-6.00
67358;HTU21D;54240;51.096;5.878;2024-03-29T05:54:43;-35.88;-6.00
67358;HTU21D;54240;51.096;5.878;2024-03-29T05:57:10;-35.88;-6.00
67358;HTU21D;54240;51.096;5.878;2024-03-29T05:59:36;-35.88;-6.00
67358;HTU21D;54240;51.096;5.878;2024-03-29T06:02:03;-35.88;-6.00
67358;HTU21D;54240;51.096;5.878;2024-03-29T06:04:29;-35.88;-6.00
67358;HTU21D;54240;51.096;5.878;2024-03-29T06:07:04;-35.88;-6.00
67358;HTU21D;54240;51.096;5.878;2024-03-29T06:09:31;-35.88;-6.00
67358;HTU21D;54240;51.096;5.878;2024-03-29T06:11:59;-35.88;-6.00
67358;HTU21D;54240;51.096;5.878;2024-03-29T06:14:24;-35.88;-6.00
67358;HTU21D;54240;51.096;5.878;2024-03-29T06:17:09;-35.88;-6.00
67358;HTU21D;54240;51.096;5.878;2024-03-29T06:19:54;-35.88;-6.00
67358;HTU21D;54240;51.096;5.878;2024-03-29T06:22:26;-35.88;-6.00
67358;HTU21D;54240;51.096;5.878;2024-03-29T06:24:56;-35.88;-6.00
67358;HTU21D;54240;51.096;5.878;2024-03-29T06:27:25;-35.88;-6.00
67358;HTU21D;54240;51.096;5.878;2024-03-29T06:29:51;-35.88;-6.00
67358;HTU21D;54240;51.096;5.878;2024-03-29T06:32:17;-41.37;-6.00
67358;HTU21D;54240;51.096;5.878;2024-03-29T06:34:47;-41.37;-6.00
67358;HTU21D;54240;51.096;5.878;2024-03-29T06:37:13;-41.37;-6.00
67358;HTU21D;54240;51.096;5.878;2024-03-29T06:39:40;-41.37;-6.00
67358;HTU21D;54240;51.096;5.878;2024-03-29T06:42:07;-41.37;-6.00
67358;HTU21D;54240;51.096;5.878;2024-03-29T06:44:33;-41.37;-6.00
67358;HTU21D;54240;51.096;5.878;2024-03-29T06:46:59;-41.37;-6.00
67358;HTU21D;54240;51.096;5.878;2024-03-29T06:49:25;-41.37;-6.00
67358;HTU21D;54240;51.096;5.878;2024-03-29T06:51:51;-41.37;-6.00
67358;HTU21D;54240;51.096;5.878;2024-03-29T06:54:17;-41.37;-6.00
67358;HTU21D;54240;51.096;5.878;2024-03-29T06:56:42;-41.37;-6.00
67358;HTU21D;54240;51.096;5.878;2024-03-29T06:59:08;-41.37;-6.00
67358;HTU21D;54240;51.096;5.878;2024-03-29T07:01:34;-41.37;-6.00
67358;HTU21D;54240;51.096;5.878;2024-03-29T07:04:01;-41.37;-6.00
67358;HTU21D;54240;51.096;5.878;2024-03-29T07:06:27;-41.37;-6.00
67358;HTU21D;54240;51.096;5.878;2024-03-29T07:08:53;-41.37;-6.00
67358;HTU21D;54240;51.096;5.878;2024-03-29T07:11:19;-41.37;-6.00
67358;HTU21D;54240;51.096;5.878;2024-03-29T07:13:45;-35.88;-6.00
67358;HTU21D;54240;51.096;5.878;2024-03-29T07:16:11;-35.88;-6.00
67358;HTU21D;54240;51.096;5.878;2024-03-29T07:18:36;-35.88;-6.00
67358;HTU21D;54240;51.096;5.878;2024-03-29T07:21:02;-35.88;-6.00
67358;HTU21D;54240;51.096;5.878;2024-03-29T07:23:28;-35.88;-6.00
67358;HTU21D;54240;51.096;5.878;2024-03-29T07:26:04;-35.88;-6.00
67358;HTU21D;54240;51.096;5.878;2024-03-29T07:28:31;-35.88;-6.00
67358;HTU21D;54240;51.096;5.878;2024-03-29T07:30:58;-30.39;-6.00
67358;HTU21D;54240;51.096;5.878;2024-03-29T07:33:30;-30.39;-6.00
67358;HTU21D;54240;51.096;5.878;2024-03-29T07:35:56;-30.39;-6.00
67358;HTU21D;54240;51.096;5.878;2024-03-29T07:38:23;-30.39;-6.00
67358;HTU21D;54240;51.096;5.878;2024-03-29T07:40:50;-30.39;-6.00
67358;HTU21D;54240;51.096;5.878;2024-03-29T07:43:16;-30.39;-6.00
67358;HTU21D;54240;51.096;5.878;2024-03-29T07:45:42;-30.39;-6.00
67358;HTU21D;54240;51.096;5.878;2024-03-29T07:48:13;-35.88;-6.00
67358;HTU21D;54240;51.096;5.878;2024-03-29T07:50:40;-35.88;-6.00
67358;HTU21D;54240;51.096;5.878;2024-03-29T07:53:06;-35.88;-6.00
67358;HTU21D;54240;51.096;5.878;2024-03-29T07:55:31;-35.88;-6.00
67358;HTU21D;54240;51.096;5.878;2024-03-29T07:57:57;-35.88;-6.00
67358;HTU21D;54240;51.096;5.878;2024-03-29T08:00:25;-35.88;-6.00
67358;HTU21D;54240;51.096;5.878;2024-03-29T08:02:51;-35.88;-6.00
67358;HTU21D;54240;51.096;5.878;2024-03-29T08:05:21;-35.88;-6.00
67358;HTU21D;54240;51.096;5.878;2024-03-29T08:07:47;-35.88;-6.00
67358;HTU21D;54240;51.096;5.878;2024-03-29T08:10:13;-35.88;-6.00
67358;HTU21D;54240;51.096;5.878;2024-03-29T08:12:39;-35.88;-6.00
67358;HTU21D;54240;51.096;5.878;2024-03-29T08:15:05;-30.39;-6.00
67358;HTU21D;54240;51.096;5.878;2024-03-29T08:17:31;-30.39;-6.00
67358;HTU21D;54240;51.096;5.878;2024-03-29T08:19:57;-30.39;-6.00
67358;HTU21D;54240;51.096;5.878;2024-03-29T08:22:23;-30.39;-6.00
67358;HTU21D;54240;51.096;5.878;2024-03-29T08:24:49;-24.90;-6.00
67358;HTU21D;54240;51.096;5.878;2024-03-29T08:27:14;-24.90;-6.00
67358;HTU21D;54240;51.096;5.878;2024-03-29T08:29:43;-24.90;-6.00
67358;HTU21D;54240;51.096;5.878;2024-03-29T08:32:09;-24.90;-6.00
67358;HTU21D;54240;51.096;5.878;2024-03-29T08:34:36;-22.15;-6.00
67358;HTU21D;54240;51.096;5.878;2024-03-29T08:37:03;-22.15;-6.00
67358;HTU21D;54240;51.096;5.878;2024-03-29T08:39:30;-22.15;-6.00
67358;HTU21D;54240;51.096;5.878;2024-03-29T08:41:58;-22.15;-6.00
67358;HTU21D;54240;51.096;5.878;2024-03-29T08:44:24;-22.15;-6.00
67358;HTU21D;54240;51.096;5.878;2024-03-29T08:46:51;-22.15;-6.00
67358;HTU21D;54240;51.096;5.878;2024-03-29T08:49:16;-22.15;-6.00
67358;HTU21D;54240;51.096;5.878;2024-03-29T08:51:42;-22.15;-6.00
67358;HTU21D;54240;51.096;5.878;2024-03-29T08:54:08;-19.40;-6.00
67358;HTU21D;54240;51.096;5.878;2024-03-29T08:56:34;-19.40;-6.00
67358;HTU21D;54240;51.096;5.878;2024-03-29T08:59:03;-19.40;-6.00
67358;HTU21D;54240;51.096;5.878;2024-03-29T09:01:36;-19.40;-6.00
67358;HTU21D;54240;51.096;5.878;2024-03-29T09:04:02;-22.15;-6.00
67358;HTU21D;54240;51.096;5.878;2024-03-29T09:06:30;-19.40;-6.00
67358;HTU21D;54240;51.096;5.878;2024-03-29T09:08:55;-19.40;-6.00
67358;HTU21D;54240;51.096;5.878;2024-03-29T09:11:21;-19.40;-6.00
67358;HTU21D;54240;51.096;5.878;2024-03-29T09:13:47;-19.40;-6.00
67358;HTU21D;54240;51.096;5.878;2024-03-29T09:16:13;-19.40;-6.00
67358;HTU21D;54240;51.096;5.878;2024-03-29T09:18:39;-19.40;-6.00
67358;HTU21D;54240;51.096;5.878;2024-03-29T09:21:05;-20.78;-6.00
67358;HTU21D;54240;51.096;5.878;2024-03-29T09:23:32;-19.40;-6.00
67358;HTU21D;54240;51.096;5.878;2024-03-29T09:25:58;-24.53;-6.00
67358;HTU21D;54240;51.096;5.878;2024-03-29T09:28:24;-24.18;-6.00
67358;HTU21D;54240;51.096;5.878;2024-03-29T09:30:56;-22.83;-6.00
67358;HTU21D;54240;51.096;5.878;2024-03-29T09:33:22;-24.35;-6.00
67358;HTU21D;54240;51.096;5.878;2024-03-29T09:35:48;-24.53;-6.00
67358;HTU21D;54240;51.096;5.878;2024-03-29T09:38:14;-20.04;-6.00
67358;HTU21D;54240;51.096;5.878;2024-03-29T09:40:40;-24.53;-6.00
67358;HTU21D;54240;51.096;5.878;2024-03-29T09:43:08;-21.74;0.00
67358;HTU21D;54240;51.096;5.878;2024-03-29T09:45:36;0.00;-6.00
67358;HTU21D;54240;51.096;5.878;2024-03-29T09:48:04;-23.65;-6.00
67358;HTU21D;54240;51.096;5.878;2024-03-29T09:50:32;-19.40;0.00
67358;HTU21D;54240;51.096;5.878;2024-03-29T09:52:59;-24.86;-6.00
67358;HTU21D;54240;51.096;5.878;2024-03-29T09:55:25;-19.21;-6.00
67358;HTU21D;54240;51.096;5.878;2024-03-29T09:57:51;-17.66;0.00
67358;HTU21D;54240;51.096;5.878;2024-03-29T10:00:18;-19.37;-6.00
67358;HTU21D;54240;51.096;5.878;2024-03-29T10:02:45;-18.85;-6.00
67358;HTU21D;54240;51.096;5.878;2024-03-29T10:05:14;-16.96;-6.00
67358;HTU21D;54240;51.096;5.878;2024-03-29T10:07:42;-18.02;-6.00
67358;HTU21D;54240;51.096;5.878;2024-03-29T10:10:10;-18.68;-6.00
67358;HTU21D;54240;51.096;5.878;2024-03-29T10:12:37;-16.55;0.00
67358;HTU21D;54240;51.096;5.878;2024-03-29T10:15:04;-8.42;-6.00
67358;HTU21D;54240;51.096;5.878;2024-03-29T10:17:51;-13.56;-6.00
67358;HTU21D;54240;51.096;5.878;2024-03-29T10:20:17;-13.65;-6.00
67358;HTU21D;54240;51.096;5.878;2024-03-29T10:22:45;-13.98;-6.00
67358;HTU21D;54240;51.096;5.878;2024-03-29T10:25:14;-15.28;-6.00
67358;HTU21D;54240;51.096;5.878;2024-03-29T10:27:41;12.33;-6.00
67358;HTU21D;54240;51.096;5.878;2024-03-29T10:30:08;-15.89;-6.00
67358;HTU21D;54240;51.096;5.878;2024-03-29T10:32:40;-17.66;-6.00
67358;HTU21D;54240;51.096;5.878;2024-03-29T10:35:08;-14.58;-6.00
67358;HTU21D;54240;51.096;5.878;2024-03-29T10:37:34;-13.39;-6.00
67358;HTU21D;54240;51.096;5.878;2024-03-29T10:40:11;16.61;-6.00
67358;HTU21D;54240;51.096;5.878;2024-03-29T10:42:41;-13.90;-6.00
67358;HTU21D;54240;51.096;5.878;2024-03-29T10:45:08;-13.21;-6.00
67358;HTU21D;54240;51.096;5.878;2024-03-29T10:47:34;-14.58;-6.00
67358;HTU21D;54240;51.096;5.878;2024-03-29T10:50:00;0.00;-6.00
67358;HTU21D;54240;51.096;5.878;2024-03-29T10:52:26;-11.83;-6.00
67358;HTU21D;54240;51.096;5.878;2024-03-29T10:54:53;-12.19;-6.00
67358;HTU21D;54240;51.096;5.878;2024-03-29T10:57:26;-9.16;0.00
67358;HTU21D;54240;51.096;5.878;2024-03-29T11:05:28;-5.67;-6.00
67358;HTU21D;54240;51.096;5.878;2024-03-29T11:07:56;-5.40;-6.00
67358;HTU21D;54240;51.096;5.878;2024-03-29T11:10:30;-7.68;-6.00
67358;HTU21D;54240;51.096;5.878;2024-03-29T11:15:31;-7.71;-6.00
67358;HTU21D;54240;51.096;5.878;2024-03-29T11:18:01;-11.98;-6.00
67358;HTU21D;54240;51.096;5.878;2024-03-29T11:20:28;-13.72;-6.00
67358;HTU21D;54240;51.096;5.878;2024-03-29T11:23:05;-11.32;-6.00
67358;HTU21D;54240;51.096;5.878;2024-03-29T11:25:42;-13.70;-6.00
67358;HTU21D;54240;51.096;5.878;2024-03-29T11:28:11;-12.70;-6.00
67358;HTU21D;54240;51.096;5.878;2024-03-29T11:31:02;-13.88;-6.00
67358;HTU21D;54240;51.096;5.878;2024-03-29T11:35:58;-13.21;-6.00
67358;HTU21D;54240;51.096;5.878;2024-03-29T11:38:32;-13.88;-6.00
67358;HTU21D;54240;51.096;5.878;2024-03-29T11:43:32;-11.17;-6.00
67358;HTU21D;54240;51.096;5.878;2024-03-29T11:46:00;-11.93;-6.00
67358;HTU21D;54240;51.096;5.878;2024-03-29T11:48:30;-11.17;-6.00
67358;HTU21D;54240;51.096;5.878;2024-03-29T11:51:00;-13.21;-6.00
67358;HTU21D;54240;51.096;5.878;2024-03-29T11:53:27;-12.54;-6.00
67358;HTU21D;54240;51.096;5.878;2024-03-29T11:55:54;-12.54;-6.00
67358;HTU21D;54240;51.096;5.878;2024-03-29T11:58:24;-11.17;-6.00
67358;HTU21D;54240;51.096;5.878;2024-03-29T12:00:51;-11.17;-6.00
67358;HTU21D;54240;51.096;5.878;2024-03-29T12:03:18;-11.17;-6.00
67358;HTU21D;54240;51.096;5.878;2024-03-29T12:05:47;-12.54;-6.00
67358;HTU21D;54240;51.096;5.878;2024-03-29T12:08:16;-11.17;-6.00
67358;HTU21D;54240;51.096;5.878;2024-03-29T12:10:42;-11.17;-6.00
67358;HTU21D;54240;51.096;5.878;2024-03-29T12:13:09;-11.17;-6.00
67358;HTU21D;54240;51.096;5.878;2024-03-29T12:15:35;-11.17;-6.00
67358;HTU21D;54240;51.096;5.878;2024-03-29T12:18:04;-11.17;-6.00
67358;HTU21D;54240;51.096;5.878;2024-03-29T12:20:36;-12.54;-6.00
67358;HTU21D;54240;51.096;5.878;2024-03-29T12:23:05;-11.17;-6.00
67358;HTU21D;54240;51.096;5.878;2024-03-29T12:25:33;-9.79;-6.00
67358;HTU21D;54240;51.096;5.878;2024-03-29T12:28:00;-8.41;-6.00
67358;HTU21D;54240;51.096;5.878;2024-03-29T12:30:26;-8.06;-6.00
67358;HTU21D;54240;51.096;5.878;2024-03-29T12:33:12;-8.06;-6.00
67358;HTU21D;54240;51.096;5.878;2024-03-29T12:35:41;-7.05;-6.00
67358;HTU21D;54240;51.096;5.878;2024-03-29T12:38:12;-8.06;-6.00
67358;HTU21D;54240;51.096;5.878;2024-03-29T12:40:42;-7.05;-6.00
67358;HTU21D;54240;51.096;5.878;2024-03-29T12:43:10;-2.93;-6.00
67358;HTU21D;54240;51.096;5.878;2024-03-29T12:45:41;-2.93;-6.00
67358;HTU21D;54240;51.096;5.878;2024-03-29T12:48:17;-11.15;-6.00
67358;HTU21D;54240;51.096;5.878;2024-03-29T12:50:45;-8.40;-6.00
67358;HTU21D;54240;51.096;5.878;2024-03-29T12:53:14;-7.89;-6.00
67358;HTU21D;54240;51.096;5.878;2024-03-29T12:55:44;-10.78;-6.00
67358;HTU21D;54240;51.096;5.878;2024-03-29T12:58:15;-8.42;-6.00
67358;HTU21D;54240;51.096;5.878;2024-03-29T13:00:44;-9.09;-6.00
67358;HTU21D;54240;51.096;5.878;2024-03-29T13:03:10;-8.41;-6.00
67358;HTU21D;54240;51.096;5.878;2024-03-29T13:05:38;-2.93;-6.00
67358;HTU21D;54240;51.096;5.878;2024-03-29T13:08:09;-8.36;-6.00
67358;HTU21D;54240;51.096;5.878;2024-03-29T13:10:39;-2.93;-6.00
67358;HTU21D;54240;51.096;5.878;2024-03-29T13:13:06;-2.91;-6.00
67358;HTU21D;54240;51.096;5.878;2024-03-29T13:15:34;-2.28;-6.00
67358;HTU21D;54240;51.096;5.878;2024-03-29T13:18:02;-2.58;-6.00
67358;HTU21D;54240;51.096;5.878;2024-03-29T13:20:30;-3.52;-6.00
67358;HTU21D;54240;51.096;5.878;2024-03-29T13:22:58;-2.93;-6.00
67358;HTU21D;54240;51.096;5.878;2024-03-29T13:25:24;-3.61;-6.00
67358;HTU21D;54240;51.096;5.878;2024-03-29T13:27:52;-4.30;-6.00
67358;HTU21D;54240;51.096;5.878;2024-03-29T13:30:23;-8.40;-6.00
67358;HTU21D;54240;51.096;5.878;2024-03-29T13:32:50;-7.90;-6.00
67358;HTU21D;54240;51.096;5.878;2024-03-29T13:35:17;-7.04;-6.00
67358;HTU21D;54240;51.096;5.878;2024-03-29T13:37:48;-5.58;-6.00
67358;HTU21D;54240;51.096;5.878;2024-03-29T13:40:16;-4.45;-6.00
67358;HTU21D;54240;51.096;5.878;2024-03-29T13:42:42;-5.24;-6.00
67358;HTU21D;54240;51.096;5.878;2024-03-29T13:45:09;-7.04;-6.00
67358;HTU21D;54240;51.096;5.878;2024-03-29T13:47:40;-8.06;-6.00
67358;HTU21D;54240;51.096;5.878;2024-03-29T13:50:08;-7.36;-6.00
67358;HTU21D;54240;51.096;5.878;2024-03-29T13:52:34;-7.20;-6.00
67358;HTU21D;54240;51.096;5.878;2024-03-29T13:55:01;-6.33;-6.00
67358;HTU21D;54240;51.096;5.878;2024-03-29T13:57:29;-5.65;-6.00
67358;HTU21D;54240;51.096;5.878;2024-03-29T13:59:55;-5.15;-6.00
67358;HTU21D;54240;51.096;5.878;2024-03-29T14:02:21;-4.61;-6.00
67358;HTU21D;54240;51.096;5.878;2024-03-29T14:04:48;-2.93;-6.00
67358;HTU21D;54240;51.096;5.878;2024-03-29T14:07:15;-3.35;-6.00
67358;HTU21D;54240;51.096;5.878;2024-03-29T14:09:46;-5.63;-6.00
67358;HTU21D;54240;51.096;5.878;2024-03-29T14:12:13;-4.30;-6.00
67358;HTU21D;54240;51.096;5.878;2024-03-29T14:14:40;-5.15;-6.00
67358;HTU21D;54240;51.096;5.878;2024-03-29T14:17:12;-6.01;-6.00
67358;HTU21D;54240;51.096;5.878;2024-03-29T14:19:39;-5.63;-6.00
67358;HTU21D;54240;51.096;5.878;2024-03-29T14:22:06;-4.60;-6.00
67358;HTU21D;54240;51.096;5.878;2024-03-29T14:24:33;-3.77;-6.00
67358;HTU21D;54240;51.096;5.878;2024-03-29T14:27:05;-3.01;-6.00
67358;HTU21D;54240;51.096;5.878;2024-03-29T14:29:32;-3.26;-6.00
67358;HTU21D;54240;51.096;5.878;2024-03-29T14:31:59;-3.42;-6.00
67358;HTU21D;54240;51.096;5.878;2024-03-29T14:34:24;-3.95;-6.00
67358;HTU21D;54240;51.096;5.878;2024-03-29T14:36:51;-5.14;-6.00
67358;HTU21D;54240;51.096;5.878;2024-03-29T14:39:18;-5.40;-6.00
67358;HTU21D;54240;51.096;5.878;2024-03-29T14:41:47;-7.01;-6.00
67358;HTU21D;54240;51.096;5.878;2024-03-29T14:44:16;-7.80;-6.00
67358;HTU21D;54240;51.096;5.878;2024-03-29T14:46:43;-7.21;-6.00
67358;HTU21D;54240;51.096;5.878;2024-03-29T14:49:09;-7.90;-6.00
67358;HTU21D;54240;51.096;5.878;2024-03-29T14:51:38;-7.90;-6.00
67358;HTU21D;54240;51.096;5.878;2024-03-29T14:54:03;-8.33;-6.00
67358;HTU21D;54240;51.096;5.878;2024-03-29T14:56:31;-7.97;-6.00
67358;HTU21D;54240;51.096;5.878;2024-03-29T14:58:59;-8.42;-6.00
67358;HTU21D;54240;51.096;5.878;2024-03-29T15:01:25;-8.41;-6.00
67358;HTU21D;54240;51.096;5.878;2024-03-29T15:03:51;-8.58;-6.00
67358;HTU21D;54240;51.096;5.878;2024-03-29T15:06:18;-8.06;-6.00
67358;HTU21D;54240;51.096;5.878;2024-03-29T15:08:44;-9.44;-6.00
67358;HTU21D;54240;51.096;5.878;2024-03-29T15:11:10;-9.07;-6.00
67358;HTU21D;54240;51.096;5.878;2024-03-29T15:13:35;-7.98;-6.00
67358;HTU21D;54240;51.096;5.878;2024-03-29T15:16:02;-7.12;-6.00
67358;HTU21D;54240;51.096;5.878;2024-03-29T15:18:28;-8.23;-6.00
67358;HTU21D;54240;51.096;5.878;2024-03-29T15:20:59;-7.12;-6.00